Time;durP1;ratioP1;P1;durP2;ratioP2;P2;SDS_P1;SDS_P2;PMS_P1;PMS_P2;Temp;Humidity;BMP_temperature;BMP_pressure;BME280_temperature;BME280_humidity;BME280_pressure;Samples;Min_cycle;Max_cycle;Signal;HPM_P1;HPM_P2
2022/09/23 00:01:13;;;;;;;17.30;11.93;;;9.90;99.90;;;;;;5073304;28;20123;-58
2022/09/23 00:03:44;;;;;;;15.35;11.90;;;9.80;99.90;;;;;;5073253;28;20127;-58
2022/09/23 00:06:15;;;;;;;18.27;12.30;;;9.80;99.90;;;;;;5073051;28;20119;-59
2022/09/23 00:08:41;;;;;;;17.95;11.82;;;10.10;99.90;;;;;;5073366;28;20041;-58
2022/09/23 00:11:18;;;;;;;16.85;11.45;;;9.90;99.90;;;;;;5073459;28;20094;-58
2022/09/23 00:13:46;;;;;;;15.68;11.70;;;9.80;99.90;;;;;;5073036;28;20127;-58
2022/09/23 00:16:15;;;;;;;19.42;11.65;;;9.80;99.90;;;;;;5054876;28;20063;-58
2022/09/23 00:18:48;;;;;;;16.40;11.65;;;9.90;99.90;;;;;;5073070;28;20059;-58
2022/09/23 00:21:14;;;;;;;17.13;12.35;;;9.70;99.90;;;;;;5072953;28;20048;-58
2022/09/23 00:23:41;;;;;;;21.65;12.00;;;9.70;99.90;;;;;;5072758;28;20136;-58
2022/09/23 00:26:09;;;;;;;16.20;11.93;;;9.70;99.90;;;;;;5072716;28;20147;-58
2022/09/23 00:28:35;;;;;;;15.18;11.88;;;;;;;;;;5072425;28;20123;-58
2022/09/23 00:31:04;;;;;;;18.35;12.60;;;9.60;99.90;;;;;;5072780;28;20431;-58
2022/09/23 00:33:29;;;;;;;20.30;12.10;;;9.60;99.90;;;;;;5072818;28;20578;-58
2022/09/23 00:36:04;;;;;;;18.00;11.93;;;9.60;99.90;;;;;;5072847;28;20044;-58
2022/09/23 00:38:30;;;;;;;15.10;12.02;;;9.70;99.90;;;;;;5073021;28;20126;-58
2022/09/23 00:40:57;;;;;;;17.00;12.52;;;9.70;99.90;;;;;;5072836;28;20128;-58
2022/09/23 00:43:51;;;;;;;17.50;11.57;;;9.90;99.90;;;;;;5072865;28;20048;-59
2022/09/23 00:46:25;;;;;;;15.45;11.68;;;9.90;99.90;;;;;;5072796;28;20557;-59
2022/09/23 00:48:57;;;;;;;20.88;12.07;;;9.70;99.90;;;;;;5073198;28;20119;-58
2022/09/23 00:51:31;;;;;;;16.00;11.20;;;9.60;99.90;;;;;;5071670;28;20052;-58
2022/09/23 00:53:57;;;;;;;15.00;11.50;;;9.50;99.90;;;;;;5072729;28;20048;-59
2022/09/23 00:56:24;;;;;;;16.42;11.45;;;9.60;99.90;;;;;;5072712;28;20037;-58
2022/09/23 00:58:52;;;;;;;16.90;11.60;;;9.30;99.90;;;;;;5072494;28;20048;-58
2022/09/23 01:01:19;;;;;;;16.65;11.40;;;10.10;99.90;;;;;;5072914;28;20049;-58
2022/09/23 01:03:47;;;;;;;15.90;11.50;;;9.50;99.90;;;;;;5071654;28;20051;-58
2022/09/23 01:06:13;;;;;;;19.67;11.68;;;9.80;99.90;;;;;;5072546;28;20040;-58
2022/09/23 01:08:42;;;;;;;15.93;11.60;;;9.70;99.90;;;;;;5072521;28;20044;-59
2022/09/23 01:11:29;;;;;;;13.55;10.80;;;9.60;99.90;;;;;;5072760;28;20033;-58
2022/09/23 01:14:23;;;;;;;18.25;11.93;;;9.50;99.90;;;;;;5072505;28;20048;-58
2022/09/23 01:17:09;;;;;;;17.83;11.40;;;9.50;99.90;;;;;;5072465;28;20055;-58
2022/09/23 01:19:35;;;;;;;17.08;11.40;;;;;;;;;;5072839;28;20131;-58
2022/09/23 01:22:22;;;;;;;20.90;11.43;;;9.40;99.90;;;;;;5072756;28;20357;-58
2022/09/23 01:25:15;;;;;;;18.08;11.50;;;9.40;99.90;;;;;;5072284;28;20044;-58
2022/09/23 01:27:47;;;;;;;17.90;11.55;;;9.50;99.90;;;;;;5072731;28;20382;-58
2022/09/23 01:30:31;;;;;;;14.40;11.63;;;9.50;99.90;;;;;;5072630;28;20048;-58
2022/09/23 01:33:13;;;;;;;15.80;11.73;;;8.20;99.90;;;;;;5071073;28;20043;-58
2022/09/23 01:35:44;;;;;;;14.93;11.32;;;10.20;99.90;;;;;;5072311;28;20215;-58
2022/09/23 01:38:31;;;;;;;15.15;11.57;;;9.40;99.90;;;;;;5073187;28;20116;-58
2022/09/23 01:41:08;;;;;;;15.65;11.10;;;9.60;99.90;;;;;;5076129;28;20090;-58
2022/09/23 01:43:46;;;;;;;17.95;11.52;;;9.50;99.90;;;;;;5075820;28;20488;-59
2022/09/23 01:46:20;;;;;;;14.88;11.55;;;9.50;99.90;;;;;;5075723;28;20484;-58
2022/09/23 01:48:54;;;;;;;13.43;11.27;;;9.50;99.90;;;;;;5075704;28;20498;-58
2022/09/23 01:51:28;;;;;;;14.88;11.40;;;9.40;99.90;;;;;;5075861;28;20040;-59
2022/09/23 01:54:19;;;;;;;13.10;11.10;;;9.40;99.90;;;;;;5074693;28;20396;-58
2022/09/23 01:56:50;;;;;;;14.32;11.40;;;9.30;99.90;;;;;;5075900;28;20049;-58
2022/09/23 01:59:44;;;;;;;17.30;11.77;;;9.30;99.90;;;;;;5074459;28;20495;-59
2022/09/23 02:02:24;;;;;;;17.95;11.38;;;9.00;99.90;;;;;;5075522;28;20036;-58
2022/09/23 02:05:01;;;;;;;14.43;11.00;;;9.50;99.90;;;;;;5075293;28;20044;-59
2022/09/23 02:07:48;;;;;;;16.02;11.23;;;9.50;99.90;;;;;;5075613;28;20101;-59
2022/09/23 02:10:24;;;;;;;15.38;11.07;;;9.30;99.90;;;;;;5075486;28;20387;-58
2022/09/23 02:12:52;;;;;;;;;;;9.30;99.90;;;;;;5076019;28;20036;-59
2022/09/23 02:15:23;;;;;;;14.40;11.45;;;9.40;99.90;;;;;;5075287;28;19920;-58
2022/09/23 02:18:08;;;;;;;15.90;12.20;;;9.30;99.90;;;;;;5075594;28;20122;-58
2022/09/23 02:20:40;;;;;;;18.67;12.07;;;9.50;99.90;;;;;;5075345;28;20044;-58
2022/09/23 02:23:11;;;;;;;13.75;11.68;;;9.20;99.90;;;;;;5075163;28;20040;-58
2022/09/23 02:26:07;;;;;;;19.00;12.02;;;9.30;99.90;;;;;;5075016;28;20033;-58
2022/09/23 02:28:55;;;;;;;16.02;11.95;;;9.00;99.90;;;;;;5075230;28;20044;-58
2022/09/23 02:31:33;;;;;;;16.13;12.55;;;9.10;99.90;;;;;;5075008;28;20504;-58
2022/09/23 02:34:20;;;;;;;16.67;11.38;;;9.20;99.90;;;;;;5074864;28;20093;-58
2022/09/23 02:37:05;;;;;;;15.75;12.38;;;8.80;99.90;;;;;;5073783;28;20054;-58
2022/09/23 02:39:41;;;;;;;17.65;12.23;;;9.60;99.90;;;;;;5075237;28;20123;-58
2022/09/23 02:42:15;;;;;;;16.15;11.35;;;9.20;99.90;;;;;;5074685;28;20049;-58
2022/09/23 02:44:42;;;;;;;14.68;11.20;;;9.20;99.90;;;;;;5074882;28;20036;-58
2022/09/23 02:47:09;;;;;;;16.83;11.88;;;;;;;;;;5074936;28;20121;-58
2022/09/23 02:49:35;;;;;;;17.40;12.00;;;9.00;99.90;;;;;;5074085;28;20065;-59
2022/09/23 02:52:04;;;;;;;17.80;12.00;;;9.10;99.90;;;;;;5074680;28;20040;-59
2022/09/23 02:54:32;;;;;;;14.25;11.48;;;9.10;99.90;;;;;;5074587;28;20411;-59
2022/09/23 02:57:02;;;;;;;15.82;11.18;;;9.50;99.90;;;;;;5073288;28;20087;-58
2022/09/23 02:59:31;;;;;;;14.57;11.25;;;9.00;99.90;;;;;;5074396;28;20044;-58
2022/09/23 03:01:57;;;;;;;18.60;11.43;;;;;;;;;;5074421;28;20048;-58
2022/09/23 03:04:38;;;;;;;15.30;11.45;;;8.90;99.90;;;;;;5073073;28;20119;-58
2022/09/23 03:07:41;;;;;;;14.45;10.65;;;8.20;99.90;;;;;;5072806;28;20117;-58
2022/09/23 03:10:24;;;;;;;14.68;11.48;;;8.80;99.90;;;;;;5053280;28;20115;-58
2022/09/23 03:13:12;;;;;;;17.27;11.63;;;8.90;99.90;;;;;;5074578;28;20127;-58
2022/09/23 03:15:56;;;;;;;14.18;10.95;;;8.90;99.90;;;;;;5073794;28;20052;-58
2022/09/23 03:18:45;;;;;;;15.32;12.32;;;9.00;99.90;;;;;;5074070;28;20041;-58
2022/09/23 03:21:50;;;;;;;17.13;11.80;;;8.80;99.90;;;;;;5073929;28;20480;-58
2022/09/23 03:24:19;;;;;;;15.88;11.95;;;8.70;99.90;;;;;;5071922;28;20049;-58
2022/09/23 03:26:46;;;;;;;14.82;11.63;;;8.80;99.90;;;;;;5073935;28;20105;-58
2022/09/23 03:29:14;;;;;;;16.38;12.23;;;8.80;99.90;;;;;;5074215;28;20044;-59
2022/09/23 03:31:42;;;;;;;14.50;11.68;;;9.10;99.90;;;;;;5073979;28;20047;-58
2022/09/23 03:34:19;;;;;;;18.15;12.40;;;8.70;99.90;;;;;;5073688;28;20527;-58
2022/09/23 03:37:02;;;;;;;16.05;12.45;;;8.80;99.90;;;;;;5073889;28;20091;-58
2022/09/23 03:39:39;;;;;;;16.42;11.85;;;8.30;99.90;;;;;;5072398;28;20090;-58
2022/09/23 03:42:12;;;;;;;16.08;11.57;;;8.60;99.90;;;;;;5073674;28;20036;-58
2022/09/23 03:44:45;;;;;;;15.60;11.77;;;8.70;99.90;;;;;;5073876;28;20044;-58
2022/09/23 03:47:14;;;;;;;16.23;11.98;;;8.90;99.90;;;;;;5073726;28;20087;-58
2022/09/23 03:49:44;;;;;;;16.05;11.98;;;8.60;99.90;;;;;;5073404;28;20446;-58
2022/09/23 03:52:11;;;;;;;15.38;12.30;;;8.60;99.90;;;;;;5073720;28;20040;-61
2022/09/23 03:54:37;;;;;;;14.85;12.23;;;8.70;99.90;;;;;;5073457;28;20341;-58
2022/09/23 03:57:03;;;;;;;17.38;12.55;;;;;;;;;;5073374;28;20050;-58
2022/09/23 03:59:29;;;;;;;15.00;12.43;;;8.60;99.90;;;;;;5073185;28;20476;-58
2022/09/23 04:01:56;;;;;;;17.00;12.20;;;8.60;99.90;;;;;;5073458;28;20127;-58
2022/09/23 04:04:28;;;;;;;16.92;12.48;;;8.60;99.90;;;;;;5072105;28;20110;-58
2022/09/23 04:06:55;;;;;;;17.55;12.95;;;9.30;99.90;;;;;;5073203;28;20033;-58
2022/09/23 04:09:21;;;;;;;17.23;12.18;;;8.50;99.90;;;;;;5073405;28;20119;-58
2022/09/23 04:11:49;;;;;;;19.00;12.13;;;8.70;99.90;;;;;;5073125;28;20063;-58
2022/09/23 04:14:15;;;;;;;16.45;12.18;;;;;;;;;;5072905;28;20055;-58
2022/09/23 04:16:41;;;;;;;15.57;12.32;;;8.80;99.90;;;;;;5073189;28;20049;-58
2022/09/23 04:19:09;;;;;;;16.95;12.20;;;8.30;99.90;;;;;;5073280;28;20055;-58
2022/09/23 04:21:36;;;;;;;18.25;13.20;;;8.70;99.90;;;;;;5071981;28;20044;-58
2022/09/23 04:24:02;;;;;;;18.00;13.10;;;8.60;99.90;;;;;;5072991;28;20396;-58
2022/09/23 04:26:29;;;;;;;23.20;13.10;;;8.70;99.90;;;;;;5072877;28;20111;-58
2022/09/23 04:28:55;;;;;;;16.17;12.20;;;9.00;99.90;;;;;;5062110;28;20098;-58
2022/09/23 04:31:22;;;;;;;16.05;12.18;;;8.60;99.90;;;;;;5063484;28;20040;-58
2022/09/23 04:33:49;;;;;;;18.08;12.80;;;8.80;99.90;;;;;;5071169;28;20041;-59
2022/09/23 04:36:15;;;;;;;16.75;12.55;;;;;;;;;;5071864;28;20076;-59
2022/09/23 04:38:45;;;;;;;14.85;12.18;;;8.60;99.90;;;;;;5071445;28;20047;-59
2022/09/23 04:41:12;;;;;;;16.95;11.85;;;8.80;99.90;;;;;;5071489;28;20037;-59
2022/09/23 04:43:39;;;;;;;19.67;13.00;;;8.20;99.90;;;;;;5071389;28;20090;-58
2022/09/23 04:46:06;;;;;;;19.98;12.82;;;8.70;99.90;;;;;;5071583;28;20084;-58
2022/09/23 04:48:35;;;;;;;16.60;12.38;;;8.70;99.90;;;;;;5071825;28;20068;-59
2022/09/23 04:51:06;;;;;;;18.13;12.57;;;8.50;99.90;;;;;;5071110;28;20113;-59
2022/09/23 04:53:34;;;;;;;15.85;12.32;;;8.50;99.90;;;;;;5066024;28;20037;-58
2022/09/23 04:56:11;;;;;;;17.35;13.25;;;8.50;99.90;;;;;;5070784;28;20162;-58
2022/09/23 04:58:39;;;;;;;15.75;13.10;;;6.80;99.90;;;;;;5069634;28;20388;-58
2022/09/23 05:01:14;;;;;;;16.33;12.20;;;8.20;99.90;;;;;;5048328;28;20060;-58
2022/09/23 05:03:42;;;;;;;15.88;12.60;;;8.40;99.90;;;;;;5051604;28;20112;-58
2022/09/23 05:06:12;;;;;;;16.17;12.88;;;8.50;99.90;;;;;;5050814;28;20040;-59
2022/09/23 05:08:50;;;;;;;17.83;12.40;;;8.50;99.90;;;;;;5051036;28;20264;-59
2022/09/23 05:11:17;;;;;;;16.17;12.50;;;8.60;99.90;;;;;;5053064;28;20037;-59
2022/09/23 05:13:45;;;;;;;20.52;13.10;;;8.40;99.90;;;;;;5054084;28;20053;-58
2022/09/23 05:16:12;;;;;;;16.27;13.20;;;;;;;;;;5054903;28;20061;-58
2022/09/23 05:18:42;;;;;;;15.98;12.70;;;8.30;99.90;;;;;;5054888;28;20444;-59
2022/09/23 05:21:09;;;;;;;16.17;12.25;;;8.40;99.90;;;;;;5055873;28;20044;-59
2022/09/23 05:23:35;;;;;;;17.33;12.90;;;;;;;;;;5055692;28;20045;-59
2022/09/23 05:26:05;;;;;;;18.40;12.68;;;8.40;99.90;;;;;;5055920;28;20538;-59
2022/09/23 05:28:32;;;;;;;17.38;13.00;;;8.50;99.90;;;;;;5071032;28;20073;-59
2022/09/23 05:31:06;;;;;;;16.13;12.75;;;8.40;99.90;;;;;;5055805;28;20083;-59
2022/09/23 05:33:33;;;;;;;20.20;12.77;;;8.40;99.90;;;;;;5056294;28;20044;-59
2022/09/23 05:35:59;;;;;;;24.95;13.25;;;8.40;99.90;;;;;;5056248;28;20085;-59
2022/09/23 05:38:29;;;;;;;20.50;12.95;;;8.60;99.90;;;;;;5056117;28;20055;-59
2022/09/23 05:41:00;;;;;;;18.58;12.40;;;8.40;99.90;;;;;;5056009;28;20041;-59
2022/09/23 05:43:25;;;;;;;18.02;12.68;;;8.40;99.90;;;;;;5055935;28;20133;-59
2022/09/23 05:46:14;;;;;;;15.15;12.30;;;8.80;99.90;;;;;;5055716;28;20064;-59
2022/09/23 05:48:44;;;;;;;14.85;11.90;;;8.50;99.90;;;;;;5055619;28;20115;-59
2022/09/23 05:51:14;;;;;;;16.98;13.02;;;8.50;99.90;;;;;;5056276;28;20044;-59
2022/09/23 05:53:44;;;;;;;18.23;12.65;;;8.50;99.90;;;;;;5055647;28;20049;-59
2022/09/23 05:56:11;;;;;;;18.88;12.82;;;9.50;99.90;;;;;;5055480;28;20074;-59
2022/09/23 05:58:39;;;;;;;18.35;12.88;;;8.50;99.90;;;;;;5055296;28;20465;-59
2022/09/23 06:01:21;;;;;;;17.13;12.77;;;8.60;99.90;;;;;;5054415;28;20103;-59
2022/09/23 06:03:47;;;;;;;18.70;12.90;;;8.90;99.90;;;;;;5055576;28;20049;-59
2022/09/23 06:06:16;;;;;;;15.27;12.07;;;9.10;99.90;;;;;;5055438;28;20037;-59
2022/09/23 06:08:42;;;;;;;20.65;12.20;;;;;;;;;;5055065;28;20045;-59
2022/09/23 06:11:09;;;;;;;15.77;12.27;;;;;;;;;;5054382;28;20037;-59
2022/09/23 06:13:38;;;;;;;17.80;11.88;;;10.00;99.90;;;;;;5055468;28;20052;-59
2022/09/23 06:16:06;;;;;;;25.52;12.07;;;10.30;99.90;;;;;;5055137;28;20057;-59
2022/09/23 06:18:33;;;;;;;21.92;10.82;;;10.60;99.90;;;;;;5055242;28;20047;-59
2022/09/23 06:21:01;;;;;;;17.75;10.88;;;10.90;99.90;;;;;;5053070;28;20049;-58
2022/09/23 06:23:27;;;;;;;16.52;10.75;;;11.40;99.90;;;;;;5054506;28;20052;-58
2022/09/23 06:26:00;;;;;;;17.35;9.70;;;11.90;99.90;;;;;;5053530;28;20037;-58
2022/09/23 06:28:31;;;;;;;17.92;9.98;;;12.20;99.90;;;;;;5055291;28;20041;-58
2022/09/23 06:30:59;;;;;;;19.75;9.13;;;12.80;99.90;;;;;;5055305;28;20040;-58
2022/09/23 06:33:26;;;;;;;15.15;9.13;;;13.40;99.90;;;;;;5053898;28;20049;-59
2022/09/23 06:35:58;;;;;;;12.57;9.10;;;13.10;99.90;;;;;;5054989;28;20041;-59
2022/09/23 06:38:25;;;;;;;14.25;9.45;;;12.90;99.90;;;;;;5054731;28;20544;-59
2022/09/23 06:40:55;;;;;;;12.93;9.27;;;12.70;99.90;;;;;;5054859;28;20087;-59
2022/09/23 06:43:23;;;;;;;15.50;9.02;;;12.80;99.90;;;;;;5054620;28;20037;-59
2022/09/23 06:45:56;;;;;;;12.27;9.85;;;12.20;99.90;;;;;;5055234;28;20045;-59
2022/09/23 06:48:23;;;;;;;13.13;9.52;;;12.70;99.90;;;;;;5053593;28;20041;-59
2022/09/23 06:50:50;;;;;;;12.70;9.70;;;12.50;99.90;;;;;;5054762;28;20052;-59
2022/09/23 06:53:16;;;;;;;13.35;10.02;;;12.10;99.90;;;;;;5053425;28;20072;-59
2022/09/23 06:55:43;;;;;;;18.63;9.95;;;;;;;;;;5054468;28;20037;-59
2022/09/23 06:58:09;;;;;;;14.57;9.68;;;11.80;99.90;;;;;;5054687;28;20120;-59
2022/09/23 07:00:36;;;;;;;15.13;9.63;;;11.90;99.90;;;;;;5054347;28;20118;-58
2022/09/23 07:03:08;;;;;;;13.50;9.88;;;11.90;99.90;;;;;;5054556;28;20045;-58
2022/09/23 07:05:37;;;;;;;16.05;10.20;;;11.70;99.90;;;;;;5054500;28;20041;-58
2022/09/23 07:08:08;;;;;;;13.23;10.18;;;11.90;99.90;;;;;;5054380;28;20124;-58
2022/09/23 07:10:38;;;;;;;14.40;9.45;;;11.70;99.90;;;;;;5069018;28;20036;-58
2022/09/23 07:13:04;;;;;;;12.65;9.95;;;12.00;99.90;;;;;;5054040;28;20485;-61
2022/09/23 07:15:32;;;;;;;15.38;10.90;;;11.80;99.90;;;;;;5052663;28;20061;-58
2022/09/23 07:18:02;;;;;;;14.38;10.25;;;;;;;;;;5054446;28;20047;-59
2022/09/23 07:20:28;;;;;;;14.60;9.88;;;11.90;99.90;;;;;;5054211;28;20046;-58
2022/09/23 07:22:54;;;;;;;14.07;10.52;;;;;;;;;;5053802;28;20049;-58
2022/09/23 07:25:23;;;;;;;14.80;9.77;;;12.50;99.90;;;;;;5054116;28;20055;-59
2022/09/23 07:27:49;;;;;;;19.13;10.70;;;;;;;;;;5054293;28;20049;-58
2022/09/23 07:30:15;;;;;;;15.23;10.45;;;11.60;99.90;;;;;;5053973;28;20115;-58
2022/09/23 07:32:42;;;;;;;14.10;9.80;;;11.90;99.90;;;;;;5053940;28;20445;-61
2022/09/23 07:35:09;;;;;;;16.73;10.20;;;12.00;99.90;;;;;;5052636;28;20485;-59
2022/09/23 07:37:35;;;;;;;15.40;10.13;;;;;;;;;;5064966;28;20319;-58
2022/09/23 07:40:05;;;;;;;13.68;10.10;;;11.90;99.90;;;;;;5073562;28;20041;-59
2022/09/23 07:42:30;;;;;;;12.93;9.60;;;12.10;99.90;;;;;;5072871;28;20044;-58
2022/09/23 07:44:56;;;;;;;13.27;10.65;;;12.40;99.90;;;;;;5073528;28;20045;-58
2022/09/23 07:47:22;;;;;;;14.00;9.90;;;;;;;;;;5073313;28;20862;-58
2022/09/23 07:49:48;;;;;;;14.63;10.02;;;;;;;;;;5073190;28;20044;-58
2022/09/23 07:52:14;;;;;;;14.10;9.90;;;12.60;99.90;;;;;;5073573;28;20048;-58
2022/09/23 07:54:40;;;;;;;16.10;10.40;;;;;;;;;;5072906;28;20059;-58
2022/09/23 07:57:07;;;;;;;16.13;10.38;;;12.20;99.90;;;;;;5072357;28;20045;-58
2022/09/23 07:59:33;;;;;;;13.80;9.73;;;12.50;99.90;;;;;;5073237;28;20040;-58
2022/09/23 08:02:01;;;;;;;14.05;9.60;;;12.60;99.90;;;;;;5073088;28;20082;-58
2022/09/23 08:04:29;;;;;;;16.33;9.60;;;12.80;99.90;;;;;;5073526;28;20119;-58
2022/09/23 08:07:01;;;;;;;17.88;9.73;;;12.90;99.90;;;;;;5071955;28;20068;-58
2022/09/23 08:09:33;;;;;;;14.40;9.70;;;13.00;99.90;;;;;;5072635;28;20040;-58
2022/09/23 08:12:00;;;;;;;16.55;9.85;;;13.10;99.90;;;;;;5073364;28;20437;-58
2022/09/23 08:14:26;;;;;;;14.30;9.82;;;13.10;99.90;;;;;;5071722;28;20472;-58
2022/09/23 08:16:56;;;;;;;12.55;8.98;;;13.50;99.90;;;;;;5072885;28;20096;-58
2022/09/23 08:19:22;;;;;;;14.85;9.40;;;;;;;;;;5072978;28;20044;-58
2022/09/23 08:21:50;;;;;;;16.20;9.88;;;;;;;;;;5073229;28;20446;-58
2022/09/23 08:24:19;;;;;;;14.52;9.68;;;13.60;99.90;;;;;;5071501;28;20056;-58
2022/09/23 08:26:47;;;;;;;12.55;9.20;;;13.60;99.90;;;;;;5072778;28;20090;-58
2022/09/23 08:29:15;;;;;;;15.82;9.73;;;13.60;99.90;;;;;;5072843;28;20488;-58
2022/09/23 08:31:42;;;;;;;12.98;9.50;;;14.50;99.90;;;;;;5072879;28;20033;-58
2022/09/23 08:34:09;;;;;;;14.13;9.68;;;13.80;99.90;;;;;;5072555;28;20054;-58
2022/09/23 08:36:35;;;;;;;14.38;9.60;;;14.50;99.90;;;;;;5071341;28;20052;-58
2022/09/23 08:39:01;;;;;;;14.20;9.43;;;14.50;99.90;;;;;;5073024;28;20458;-58
2022/09/23 08:41:50;;;;;;;16.38;9.45;;;13.90;99.90;;;;;;5072729;28;20495;-58
2022/09/23 08:44:38;;;;;;;14.95;8.90;;;14.60;99.90;;;;;;5072586;28;20044;-58
2022/09/23 08:47:23;;;;;;;15.55;9.68;;;13.70;99.90;;;;;;5072810;28;20066;-58
2022/09/23 08:50:07;;;;;;;16.63;9.13;;;14.20;99.90;;;;;;5076707;28;20112;-58
2022/09/23 08:52:48;;;;;;;17.73;8.45;;;14.10;99.90;;;;;;5077176;28;20044;-58
2022/09/23 08:55:17;;;;;;;12.13;8.68;;;14.40;99.90;;;;;;5076672;28;20484;-58
2022/09/23 08:58:00;;;;;;;13.80;8.98;;;14.30;99.90;;;;;;5076917;28;20098;-58
2022/09/23 09:00:40;;;;;;;15.38;9.00;;;14.40;99.90;;;;;;5077244;28;20194;-58
2022/09/23 09:03:21;;;;;;;12.35;8.77;;;14.70;99.90;;;;;;5076913;28;20106;-58
2022/09/23 09:05:48;;;;;;;11.95;8.98;;;15.40;99.90;;;;;;5076407;28;20032;-58
2022/09/23 09:08:23;;;;;;;15.77;9.25;;;14.60;99.90;;;;;;5076525;28;20417;-58
2022/09/23 09:10:54;;;;;;;15.05;8.93;;;15.00;99.90;;;;;;5076535;28;20515;-58
2022/09/23 09:13:32;;;;;;;15.57;8.95;;;15.20;99.90;;;;;;5076630;28;20032;-58
2022/09/23 09:16:54;;;;;;;17.88;8.95;;;14.50;99.90;;;;;;5074681;28;20052;-58
2022/09/23 09:19:34;;;;;;;15.60;8.50;;;15.40;99.90;;;;;;5034007;28;20072;-59
2022/09/23 09:22:04;;;;;;;11.60;9.10;;;15.10;99.90;;;;;;5017437;28;20211;-58
2022/09/23 09:24:33;;;;;;;13.50;9.27;;;15.50;99.90;;;;;;5033939;28;20529;-58
2022/09/23 09:27:12;;;;;;;17.15;8.85;;;15.40;99.90;;;;;;5033979;28;20592;-59
2022/09/23 09:29:47;;;;;;;14.30;8.70;;;15.60;99.90;;;;;;5034059;28;20041;-58
2022/09/23 09:32:22;;;;;;;11.57;8.90;;;15.40;99.90;;;;;;5034016;28;20049;-59
2022/09/23 09:34:57;;;;;;;16.58;9.43;;;15.30;99.90;;;;;;5034046;28;20090;-59
2022/09/23 09:37:43;;;;;;;12.95;8.48;;;15.50;99.90;;;;;;5033332;28;20055;-59
2022/09/23 09:40:15;;;;;;;;;;;15.60;99.90;;;;;;5033736;28;20053;-59
2022/09/23 09:42:45;;;;;;;16.27;8.80;;;15.60;99.90;;;;;;5033884;28;20365;-59
2022/09/23 09:45:26;;;;;;;18.00;9.23;;;15.60;99.90;;;;;;5029151;28;20053;-59
2022/09/23 09:48:12;;;;;;;13.45;9.15;;;15.70;99.90;;;;;;5014122;28;20046;-59
2022/09/23 09:50:42;;;;;;;15.88;9.13;;;15.80;99.90;;;;;;5013975;28;20116;-59
2022/09/23 09:53:26;;;;;;;13.93;8.55;;;16.20;99.90;;;;;;5031874;28;20060;-59
2022/09/23 09:55:59;;;;;;;17.42;8.45;;;15.90;99.90;;;;;;5055484;28;20041;-59
2022/09/23 09:58:32;;;;;;;13.68;8.65;;;16.20;99.90;;;;;;5055887;28;20115;-59
2022/09/23 10:00:58;;;;;;;15.68;8.93;;;16.00;99.90;;;;;;5055669;28;20044;-60
2022/09/23 10:03:32;;;;;;;20.02;9.05;;;16.00;99.90;;;;;;5055451;28;20139;-59
2022/09/23 10:05:58;;;;;;;13.15;8.13;;;16.00;99.90;;;;;;5055486;28;20500;-59
2022/09/23 10:08:33;;;;;;;13.50;8.48;;;16.40;99.90;;;;;;5055430;28;20747;-59
2022/09/23 10:10:59;;;;;;;13.00;8.23;;;;;;;;;;5054377;28;20407;-59
2022/09/23 10:13:28;;;;;;;12.93;8.60;;;16.60;99.90;;;;;;5055336;28;20120;-61
2022/09/23 10:15:59;;;;;;;14.63;8.52;;;16.10;99.90;;;;;;5055015;28;20061;-59
2022/09/23 10:18:48;;;;;;;15.93;8.30;;;16.80;99.90;;;;;;5055673;28;20083;-60
2022/09/23 10:21:21;;;;;;;14.80;8.45;;;16.60;99.90;;;;;;5054063;28;20056;-59
2022/09/23 10:23:56;;;;;;;13.98;7.72;;;16.80;99.90;;;;;;5055058;28;20037;-59
2022/09/23 10:26:49;;;;;;;11.13;7.78;;;16.90;99.90;;;;;;5055251;28;20147;-60
2022/09/23 10:29:38;;;;;;;10.85;8.23;;;17.50;99.90;;;;;;5055309;28;20037;-60
2022/09/23 10:32:22;;;;;;;11.40;8.05;;;17.20;99.90;;;;;;5053744;28;20036;-59
2022/09/23 10:35:14;;;;;;;10.65;7.75;;;16.60;99.90;;;;;;5055384;28;20048;-59
2022/09/23 10:37:48;;;;;;;15.30;7.63;;;17.00;99.90;;;;;;5055142;28;20048;-59
2022/09/23 10:46:38;;;;;;;12.40;8.45;;;16.80;99.90;;;;;;5062064;28;20113;-60
2022/09/23 10:49:34;;;;;;;16.75;8.40;;;16.80;99.90;;;;;;5064557;28;20029;-59
2022/09/23 10:52:24;;;;;;;12.82;7.57;;;16.90;99.90;;;;;;5073254;28;20052;-60
2022/09/23 10:55:06;;;;;;;13.65;8.60;;;16.70;99.90;;;;;;5062573;28;20404;-60
2022/09/23 10:57:44;;;;;;;14.23;8.18;;;16.10;99.90;;;;;;5073125;28;20127;-59
2022/09/23 11:00:22;;;;;;;15.32;7.75;;;16.80;99.90;;;;;;5073389;28;20221;-60
2022/09/23 11:03:08;;;;;;;14.57;7.60;;;16.70;99.90;;;;;;5073120;28;20131;-60
2022/09/23 11:05:46;;;;;;;11.73;8.02;;;16.80;99.90;;;;;;5073419;28;20051;-60
2022/09/23 11:08:39;;;;;;;12.13;7.88;;;17.10;99.90;;;;;;5056753;28;20049;-61
2022/09/23 11:11:28;;;;;;;14.85;7.45;;;17.20;99.90;;;;;;5052795;28;20036;-61
2022/09/23 11:13:57;;;;;;;14.65;8.23;;;17.00;99.90;;;;;;5053153;28;20053;-61
2022/09/23 11:16:37;;;;;;;14.88;8.05;;;16.60;99.90;;;;;;5052990;28;20063;-61
2022/09/23 11:19:31;;;;;;;16.67;7.53;;;16.80;99.90;;;;;;5060422;28;20404;-61
2022/09/23 11:22:22;;;;;;;13.13;7.45;;;17.20;99.90;;;;;;5070357;28;20549;-61
2022/09/23 11:25:08;;;;;;;12.23;7.65;;;17.30;99.90;;;;;;5068896;28;20037;-61
2022/09/23 11:28:02;;;;;;;15.65;7.72;;;17.20;99.90;;;;;;5072822;28;20138;-61
2022/09/23 11:31:19;;;;;;;10.20;7.53;;;17.50;99.90;;;;;;5072742;28;20116;-61
2022/09/23 11:34:33;;;;;;;16.58;8.13;;;17.10;99.90;;;;;;5051158;28;20412;-60
2022/09/23 11:37:12;;;;;;;13.77;7.90;;;17.20;99.90;;;;;;5053500;28;20051;-60
2022/09/23 11:40:00;;;;;;;18.25;7.70;;;17.50;99.90;;;;;;5053703;28;20053;-61
2022/09/23 11:42:30;;;;;;;13.50;7.50;;;18.00;99.90;;;;;;5053818;28;20045;-62
2022/09/23 11:45:07;;;;;;;11.52;7.20;;;17.30;99.90;;;;;;5053675;28;20404;-61
2022/09/23 11:47:45;;;;;;;12.27;7.43;;;17.40;99.90;;;;;;5052541;28;20403;-61
2022/09/23 11:50:28;;;;;;;9.20;7.35;;;17.60;99.90;;;;;;5053189;28;20033;-60
2022/09/23 11:53:20;;;;;;;15.10;7.80;;;17.60;99.90;;;;;;5052127;28;20083;-61
2022/09/23 11:55:59;;;;;;;13.63;7.40;;;17.50;99.90;;;;;;5053512;28;20032;-61
2022/09/23 11:58:33;;;;;;;9.52;6.53;;;17.60;99.90;;;;;;5053482;28;20041;-61
2022/09/23 12:01:06;;;;;;;12.18;7.60;;;17.70;99.90;;;;;;5053586;28;20041;-60
2022/09/23 12:03:40;;;;;;;14.52;6.97;;;17.60;99.90;;;;;;5053547;28;20429;-60
2022/09/23 12:06:13;;;;;;;11.98;7.30;;;17.60;99.90;;;;;;5053466;28;20091;-61
2022/09/23 12:08:39;;;;;;;10.93;7.32;;;17.50;99.90;;;;;;5053360;28;20053;-61
2022/09/23 12:11:18;;;;;;;18.65;7.55;;;18.00;99.90;;;;;;5051714;28;20058;-61
2022/09/23 12:13:44;;;;;;;13.60;6.97;;;;;;;;;;5053081;28;20071;-61
2022/09/23 12:16:37;;;;;;;17.15;7.18;;;17.70;99.90;;;;;;5052910;28;20053;-61
2022/09/23 12:19:21;;;;;;;11.40;6.93;;;18.20;99.90;;;;;;5053353;28;20147;-61
2022/09/23 12:22:23;;;;;;;10.93;7.40;;;17.60;99.90;;;;;;5053125;28;20043;-61
2022/09/23 12:25:16;;;;;;;14.00;7.10;;;17.60;99.90;;;;;;5052819;28;20044;-61
2022/09/23 12:27:46;;;;;;;10.05;7.15;;;17.30;99.90;;;;;;5053389;28;20094;-61
2022/09/23 12:30:13;;;;;;;13.10;6.82;;;;;;;;;;5052941;28;20102;-61
2022/09/23 12:32:41;;;;;;;16.92;7.03;;;17.70;99.90;;;;;;5052441;28;20037;-60
2022/09/23 12:35:20;;;;;;;15.18;7.00;;;17.70;99.90;;;;;;5052876;28;20078;-61
2022/09/23 12:37:46;;;;;;;10.88;7.03;;;;;;;;;;5053205;28;20124;-61
2022/09/23 12:40:26;;;;;;;11.70;6.97;;;17.50;99.90;;;;;;5052120;28;20052;-61
2022/09/23 12:42:52;;;;;;;12.88;7.15;;;;;;;;;;5051533;28;20060;-61
2022/09/23 12:45:39;;;;;;;12.32;7.72;;;17.80;99.90;;;;;;5052871;28;20045;-60
2022/09/23 12:48:20;;;;;;;12.35;8.18;;;17.70;99.90;;;;;;5053036;28;20045;-61
2022/09/23 12:50:55;;;;;;;11.35;7.65;;;17.70;99.90;;;;;;5051334;28;20070;-61
2022/09/23 12:53:40;;;;;;;10.35;7.15;;;17.90;99.90;;;;;;5052824;28;20041;-61
2022/09/23 12:56:21;;;;;;;15.35;7.50;;;17.30;99.90;;;;;;5052779;28;20465;-61
2022/09/23 12:58:49;;;;;;;13.80;6.95;;;17.60;99.90;;;;;;5051524;28;20071;-61
2022/09/23 13:01:21;;;;;;;11.18;7.18;;;17.80;99.90;;;;;;5051608;28;20041;-61
2022/09/23 13:07:07;;;;;;;15.30;7.20;;;17.80;99.90;;;;;;5052867;28;20041;-60
2022/09/23 13:09:48;;;;;;;13.10;7.57;;;18.00;99.90;;;;;;5052548;28;20500;-60
2022/09/23 13:12:24;;;;;;;16.45;7.53;;;17.90;99.90;;;;;;5052705;28;20041;-61
2022/09/23 13:14:52;;;;;;;9.98;6.90;;;18.00;99.90;;;;;;5052455;28;20055;-60
2022/09/23 13:17:36;;;;;;;14.07;7.30;;;17.80;99.90;;;;;;5052496;28;20049;-60
2022/09/23 13:20:02;;;;;;;11.93;7.50;;;17.80;99.90;;;;;;5052305;28;20047;-60
2022/09/23 13:23:20;;;;;;;13.15;7.25;;;17.90;99.90;;;;;;5051225;28;20077;-60
2022/09/23 13:25:47;;;;;;;13.35;7.20;;;18.20;99.90;;;;;;5049526;28;20167;-60
2022/09/23 13:28:25;;;;;;;14.07;7.40;;;17.90;99.90;;;;;;5050249;28;20053;-61
2022/09/23 13:30:52;;;;;;;11.35;7.60;;;;;;;;;;5050248;28;20048;-60